25 | 01 | 2021

Klimadaten

Klimadaten von der Klimastation Reinstorf  

Datum Zeit Temp.Außen Temp.min Temp.max Temp.2cm Temp.5cm Temp. 10cm Temp. 50cm Feuchte A. BlattFeu 1 Bod.Feucht 1 Luftdruck Regen Wind Richtung Richtung Sonnenschein Zeit Regen ET UV Solar Taupunkt Windchill Windböen
24.01.21 00:00:00 0,8 °C 0,7 °C 0,8 °C 0,6 °C 0,6 °C 1,1 °C 2,2 °C 96,00% 15 lf 93 cb 995,7 hPa 0,0 l/m˛ 3,2 km/h (1 Bft) SO 135 ° 0 min 0 min 0,000 mm 0,0 UV-I 0 W/m˛ 0,2 °C 0,7 °C 8,0 km/h (2 Bft)
24.01.21 00:30:00 0,7 °C 0,7 °C 0,8 °C 0,6 °C 0,6 °C 1,1 °C 2,2 °C 96,00% 15 lf 93 cb 995,6 hPa 0,0 l/m˛ 3,2 km/h (1 Bft) S-SO 157 ° 0 min 0 min 0,000 mm 0,0 UV-I 0 W/m˛ 0,1 °C 0,7 °C 8,0 km/h (2 Bft)
24.01.21 01:00:00 0,6 °C 0,6 °C 0,7 °C 0,6 °C 0,6 °C 1,1 °C 2,2 °C 96,00% 15 lf 93 cb 995,5 hPa 0,0 l/m˛ 1,6 km/h (1 Bft) S-SO 157 ° 0 min 0 min 0,000 mm 0,0 UV-I 0 W/m˛ 0,0 °C 0,6 °C 6,4 km/h (2 Bft)
24.01.21 01:30:00 0,3 °C 0,3 °C 0,6 °C 0,6 °C 0,6 °C 1,1 °C 2,2 °C 96,00% 15 lf 94 cb 995,6 hPa 0,0 l/m˛ 0,0 km/h (0 Bft) N 0 ° 0 min 0 min 0,000 mm 0,0 UV-I 0 W/m˛ -0,3 °C 0,3 °C 0,0 km/h (0 Bft)
24.01.21 02:00:00 0,2 °C 0,2 °C 0,3 °C 0,0 °C 0,6 °C 1,1 °C 2,2 °C 96,00% 15 lf 94 cb 995,7 hPa 0,0 l/m˛ 1,6 km/h (1 Bft) S-SO 157 ° 0 min 0 min 0,000 mm 0,0 UV-I 0 W/m˛ -0,4 °C 0,2 °C 4,8 km/h (1 Bft)
24.01.21 02:30:00 -0,2 °C -0,2 °C 0,2 °C -0,6 °C 0,6 °C 1,1 °C 2,2 °C 96,00% 1 lf 93 cb 995,7 hPa 0,0 l/m˛ 1,6 km/h (1 Bft) S-SO 157 ° 0 min 0 min 0,000 mm 0,0 UV-I 0 W/m˛ -0,8 °C -0,2 °C 4,8 km/h (1 Bft)
24.01.21 03:00:00 -0,3 °C -0,5 °C -0,2 °C -0,6 °C 0,6 °C 1,1 °C 2,2 °C 96,00% 1 lf 92 cb 995,8 hPa 0,0 l/m˛ 1,6 km/h (1 Bft) S-SO 157 ° 0 min 0 min 0,000 mm 0,0 UV-I 0 W/m˛ -0,9 °C -0,5 °C 8,0 km/h (2 Bft)
24.01.21 03:30:00 -0,6 °C -0,6 °C -0,3 °C 0,0 °C 0,6 °C 1,1 °C 2,2 °C 96,00% 1 lf 93 cb 995,8 hPa 0,0 l/m˛ 0,0 km/h (0 Bft) S-SO 157 ° 0 min 0 min 0,000 mm 0,0 UV-I 0 W/m˛ -1,2 °C -0,6 °C 1,6 km/h (1 Bft)
24.01.21 04:00:00 -0,3 °C -0,6 °C -0,3 °C -0,6 °C 0,6 °C 1,1 °C 2,2 °C 96,00% 1 lf 92 cb 996,0 hPa 0,0 l/m˛ 1,6 km/h (1 Bft) S-SO 157 ° 0 min 0 min 0,000 mm 0,0 UV-I 0 W/m˛ -0,9 °C -0,6 °C 6,4 km/h (2 Bft)
24.01.21 04:30:00 0,0 °C -0,3 °C 0,1 °C 0,0 °C 0,6 °C 1,1 °C 2,2 °C 96,00% 1 lf 94 cb 995,8 hPa 0,0 l/m˛ 3,2 km/h (1 Bft) S-SO 157 ° 0 min 0 min 0,000 mm 0,0 UV-I 0 W/m˛ -0,6 °C -0,3 °C 6,4 km/h (2 Bft)
24.01.21 05:00:00 -0,4 °C -0,4 °C 0,0 °C -0,6 °C 0,6 °C 1,1 °C 2,2 °C 96,00% 1 lf 92 cb 995,8 hPa 0,0 l/m˛ 1,6 km/h (1 Bft) SO 135 ° 0 min 0 min 0,000 mm 0,0 UV-I 0 W/m˛ -1,0 °C -0,4 °C 4,8 km/h (1 Bft)
24.01.21 05:30:00 -1,2 °C -1,2 °C -0,4 °C -0,6 °C 0,6 °C 1,1 °C 2,2 °C 96,00% 0 lf 92 cb 995,8 hPa 0,0 l/m˛ 1,6 km/h (1 Bft) SO 135 ° 0 min 0 min 0,000 mm 0,0 UV-I 0 W/m˛ -1,8 °C -1,2 °C 6,4 km/h (2 Bft)
24.01.21 06:00:00 -1,3 °C -1,4 °C -1,2 °C -0,6 °C 0,6 °C 1,1 °C 2,2 °C 96,00% 0 lf 93 cb 995,7 hPa 0,0 l/m˛ 0,0 km/h (0 Bft) N 0 ° 0 min 0 min 0,000 mm 0,0 UV-I 0 W/m˛ -1,9 °C -1,4 °C 0,0 km/h (0 Bft)
24.01.21 06:30:00 -1,0 °C -1,3 °C -1,0 °C -0,6 °C 0,6 °C 1,1 °C 2,2 °C 96,00% 0 lf 93 cb 995,6 hPa 0,0 l/m˛ 0,0 km/h (0 Bft) W 270 ° 0 min 0 min 0,000 mm 0,0 UV-I 0 W/m˛ -1,6 °C -1,3 °C 4,8 km/h (1 Bft)
24.01.21 07:00:00 -1,2 °C -1,2 °C -1,0 °C -0,6 °C 0,6 °C 1,1 °C 2,2 °C 96,00% 0 lf 92 cb 995,8 hPa 0,0 l/m˛ 1,6 km/h (1 Bft) W 270 ° 0 min 0 min 0,000 mm 0,0 UV-I 0 W/m˛ -1,8 °C -1,2 °C 3,2 km/h (1 Bft)
24.01.21 07:30:00 -1,6 °C -1,6 °C -1,2 °C -0,6 °C 0,6 °C 1,1 °C 2,2 °C 96,00% 0 lf 93 cb 995,8 hPa 0,0 l/m˛ 0,0 km/h (0 Bft) W 270 ° 0 min 0 min 0,000 mm 0,0 UV-I 0 W/m˛ -2,2 °C -1,6 °C 3,2 km/h (1 Bft)
24.01.21 08:00:00 -1,4 °C -1,6 °C -1,4 °C -0,6 °C 0,6 °C 1,1 °C 2,2 °C 96,00% 0 lf 93 cb 996,0 hPa 0,0 l/m˛ 0,0 km/h (0 Bft) W 270 ° 0 min 0 min 0,000 mm 0,0 UV-I 0 W/m˛ -2,0 °C -1,6 °C 1,6 km/h (1 Bft)
24.01.21 08:30:00 -1,4 °C -1,4 °C -1,3 °C -0,6 °C 0,6 °C 1,1 °C 2,2 °C 96,00% 0 lf 94 cb 996,2 hPa 0,0 l/m˛ 0,0 km/h (0 Bft) N 0 ° 0 min 0 min 0,000 mm 0,0 UV-I 7 W/m˛ -2,0 °C -1,4 °C 0,0 km/h (0 Bft)
24.01.21 09:00:00 -1,5 °C -1,6 °C -1,4 °C -0,6 °C 0,6 °C 1,1 °C 2,2 °C 96,00% 1 lf 93 cb 996,3 hPa 0,0 l/m˛ 0,0 km/h (0 Bft) W 270 ° 0 min 0 min 0,000 mm 0,0 UV-I 19 W/m˛ -2,1 °C -1,6 °C 1,6 km/h (1 Bft)
24.01.21 09:30:00 -0,8 °C -1,5 °C -0,8 °C 0,0 °C 0,6 °C 1,1 °C 2,2 °C 96,00% 1 lf 94 cb 996,5 hPa 0,0 l/m˛ 0,0 km/h (0 Bft) SW 225 ° 0 min 0 min 0,000 mm 0,0 UV-I 33 W/m˛ -1,4 °C -1,5 °C 4,8 km/h (1 Bft)
24.01.21 10:00:00 -0,4 °C -0,8 °C -0,4 °C 0,0 °C 0,6 °C 1,1 °C 2,2 °C 96,00% 2 lf 96 cb 996,7 hPa 0,0 l/m˛ 0,0 km/h (0 Bft) N 0 ° 0 min 0 min 0,000 mm 0,0 UV-I 44 W/m˛ -1,0 °C -0,8 °C 0,0 km/h (0 Bft)
24.01.21 10:30:00 0,2 °C -0,4 °C 0,2 °C 0,6 °C 0,6 °C 1,1 °C 2,2 °C 96,00% 15 lf 94 cb 996,7 hPa 0,0 l/m˛ 0,0 km/h (0 Bft) SW 225 ° 0 min 0 min 0,000 mm 0,0 UV-I 46 W/m˛ -0,4 °C -0,4 °C 3,2 km/h (1 Bft)
24.01.21 11:00:00 0,4 °C 0,2 °C 0,4 °C 0,6 °C 0,6 °C 1,1 °C 2,2 °C 96,00% 15 lf 94 cb 996,9 hPa 0,0 l/m˛ 0,0 km/h (0 Bft) SW 225 ° 0 min 0 min 0,025 mm 0,0 UV-I 40 W/m˛ -0,2 °C 0,2 °C 4,8 km/h (1 Bft)
24.01.21 11:30:00 0,6 °C 0,4 °C 0,6 °C 0,6 °C 0,6 °C 1,1 °C 2,2 °C 96,00% 15 lf 94 cb 997,2 hPa 0,0 l/m˛ 0,0 km/h (0 Bft) N 0 ° 0 min 0 min 0,000 mm 0,0 UV-I 44 W/m˛ 0,0 °C 0,4 °C 0,0 km/h (0 Bft)
24.01.21 12:00:00 0,6 °C 0,5 °C 0,6 °C 0,6 °C 0,6 °C 1,1 °C 2,2 °C 96,00% 15 lf 95 cb 997,3 hPa 0,2 l/m˛ 1,6 km/h (1 Bft) S 180 ° 30 min 30 min 0,025 mm 0,0 UV-I 54 W/m˛ 0,0 °C 0,5 °C 4,8 km/h (1 Bft)
24.01.21 12:30:00 0,7 °C 0,6 °C 0,7 °C 1,1 °C 0,6 °C 1,1 °C 2,2 °C 96,00% 15 lf 95 cb 997,3 hPa 0,2 l/m˛ 4,8 km/h (1 Bft) W-SW 247 ° 30 min 30 min 0,000 mm 0,0 UV-I 53 W/m˛ 0,1 °C 0,6 °C 9,7 km/h (2 Bft)
24.01.21 13:00:00 0,9 °C 0,7 °C 0,9 °C 1,1 °C 0,6 °C 1,1 °C 2,2 °C 96,00% 15 lf 96 cb 997,4 hPa 0,2 l/m˛ 0,0 km/h (0 Bft) W-SW 247 ° 0 min 30 min 0,025 mm 0,0 UV-I 44 W/m˛ 0,3 °C 0,7 °C 6,4 km/h (2 Bft)
24.01.21 13:30:00 1,2 °C 1,0 °C 1,3 °C 1,1 °C 0,6 °C 1,1 °C 2,2 °C 96,00% 15 lf 97 cb 997,4 hPa 0,4 l/m˛ 4,8 km/h (1 Bft) W 270 ° 0 min 30 min 0,000 mm 0,0 UV-I 44 W/m˛ 0,6 °C 1,0 °C 11,3 km/h (2 Bft)
24.01.21 14:00:00 1,1 °C 1,1 °C 1,2 °C 1,1 °C 0,6 °C 1,1 °C 2,2 °C 96,00% 15 lf 96 cb 997,4 hPa 0,4 l/m˛ 6,4 km/h (2 Bft) W 270 ° 0 min 30 min 0,025 mm 0,0 UV-I 44 W/m˛ 0,5 °C 1,1 °C 11,3 km/h (2 Bft)
24.01.21 14:30:00 1,0 °C 1,0 °C 1,1 °C 1,1 °C 1,1 °C 1,1 °C 2,2 °C 96,00% 15 lf 95 cb 997,4 hPa 0,2 l/m˛ 4,8 km/h (1 Bft) W 270 ° 0 min 30 min 0,000 mm 0,0 UV-I 35 W/m˛ 0,4 °C 1,0 °C 8,0 km/h (2 Bft)
24.01.21 15:00:00 1,1 °C 1,0 °C 1,1 °C 1,1 °C 1,1 °C 1,1 °C 2,2 °C 96,00% 15 lf 95 cb 997,5 hPa 0,2 l/m˛ 1,6 km/h (1 Bft) W-NW 292 ° 0 min 30 min 0,000 mm 0,0 UV-I 33 W/m˛ 0,5 °C 1,0 °C 4,8 km/h (1 Bft)
24.01.21 15:30:00 1,2 °C 1,1 °C 1,2 °C 1,1 °C 1,1 °C 1,1 °C 2,2 °C 96,00% 15 lf 97 cb 997,6 hPa 0,2 l/m˛ 0,0 km/h (0 Bft) W-NW 292 ° 0 min 30 min 0,000 mm 0,0 UV-I 32 W/m˛ 0,6 °C 1,1 °C 3,2 km/h (1 Bft)
24.01.21 16:00:00 1,1 °C 1,1 °C 1,2 °C 1,1 °C 1,1 °C 1,1 °C 2,2 °C 96,00% 15 lf 96 cb 997,8 hPa 0,0 l/m˛ 0,0 km/h (0 Bft) W-NW 292 ° 0 min 0 min 0,000 mm 0,0 UV-I 19 W/m˛ 0,5 °C 1,1 °C 3,2 km/h (1 Bft)
24.01.21 16:30:00 1,0 °C 1,0 °C 1,1 °C 1,1 °C 1,1 °C 1,1 °C 2,2 °C 96,00% 15 lf 94 cb 997,9 hPa 0,0 l/m˛ 1,6 km/h (1 Bft) W-NW 292 ° 0 min 0 min 0,000 mm 0,0 UV-I 12 W/m˛ 0,4 °C 1,0 °C 4,8 km/h (1 Bft)
24.01.21 17:00:00 0,8 °C 0,8 °C 1,0 °C 0,6 °C 1,1 °C 1,1 °C 2,2 °C 96,00% 13 lf 93 cb 998,0 hPa 0,2 l/m˛ 1,6 km/h (1 Bft) W 270 ° 0 min 30 min 0,000 mm 0,0 UV-I 0 W/m˛ 0,2 °C 0,8 °C 4,8 km/h (1 Bft)
24.01.21 17:30:00 0,7 °C 0,7 °C 0,8 °C 0,6 °C 1,1 °C 1,1 °C 2,2 °C 96,00% 12 lf 93 cb 998,0 hPa 0,2 l/m˛ 0,0 km/h (0 Bft) N 0 ° 0 min 30 min 0,000 mm 0,0 UV-I 0 W/m˛ 0,1 °C 0,7 °C 0,0 km/h (0 Bft)
24.01.21 18:00:00 0,6 °C 0,6 °C 0,7 °C 0,6 °C 1,1 °C 1,1 °C 2,2 °C 96,00% 11 lf 94 cb 998,0 hPa 0,0 l/m˛ 0,0 km/h (0 Bft) N 0 ° 0 min 0 min 0,000 mm 0,0 UV-I 0 W/m˛ 0,0 °C 0,6 °C 0,0 km/h (0 Bft)
24.01.21 18:30:00 0,6 °C 0,5 °C 0,6 °C 0,6 °C 1,1 °C 1,1 °C 2,2 °C 96,00% 13 lf 92 cb 998,1 hPa 0,0 l/m˛ 0,0 km/h (0 Bft) W 270 ° 0 min 0 min 0,000 mm 0,0 UV-I 0 W/m˛ 0,0 °C 0,5 °C 1,6 km/h (1 Bft)
24.01.21 19:00:00 0,5 °C 0,5 °C 0,6 °C 0,6 °C 1,1 °C 1,1 °C 2,2 °C 96,00% 12 lf 91 cb 998,1 hPa 0,0 l/m˛ 0,0 km/h (0 Bft) SW 225 ° 0 min 0 min 0,000 mm 0,0 UV-I 0 W/m˛ -0,1 °C 0,5 °C 3,2 km/h (1 Bft)
24.01.21 19:30:00 0,4 °C 0,4 °C 0,5 °C 0,6 °C 1,1 °C 1,1 °C 2,2 °C 96,00% 13 lf 91 cb 998,0 hPa 0,0 l/m˛ 0,0 km/h (0 Bft) N 0 ° 0 min 0 min 0,000 mm 0,0 UV-I 0 W/m˛ -0,2 °C 0,4 °C 0,0 km/h (0 Bft)
24.01.21 20:00:00 0,4 °C 0,4 °C 0,5 °C 0,6 °C 1,1 °C 1,1 °C 2,2 °C 96,00% 13 lf 92 cb 998,0 hPa 0,0 l/m˛ 0,0 km/h (0 Bft) N 0 ° 0 min 0 min 0,000 mm 0,0 UV-I 0 W/m˛ -0,2 °C 0,4 °C 0,0 km/h (0 Bft)
24.01.21 20:30:00 0,4 °C 0,4 °C 0,5 °C 0,6 °C 1,1 °C 1,1 °C 2,2 °C 96,00% 13 lf 88 cb 998,0 hPa 0,0 l/m˛ 0,0 km/h (0 Bft) N 0 ° 0 min 0 min 0,000 mm 0,0 UV-I 0 W/m˛ -0,2 °C 0,4 °C 0,0 km/h (0 Bft)
24.01.21 21:00:00 0,4 °C 0,4 °C 0,5 °C 0,6 °C 1,1 °C 1,1 °C 2,2 °C 97,00% 13 lf 91 cb 997,9 hPa 0,0 l/m˛ 0,0 km/h (0 Bft) SW 225 ° 0 min 0 min 0,000 mm 0,0 UV-I 0 W/m˛ -0,0 °C 0,4 °C 4,8 km/h (1 Bft)
24.01.21 21:30:00 0,8 °C 0,5 °C 0,8 °C 0,6 °C 1,1 °C 1,1 °C 2,2 °C 96,00% 12 lf 90 cb 998,0 hPa 0,0 l/m˛ 3,2 km/h (1 Bft) SW 225 ° 0 min 0 min 0,000 mm 0,0 UV-I 0 W/m˛ 0,2 °C 0,5 °C 4,8 km/h (1 Bft)
24.01.21 22:00:00 0,8 °C 0,8 °C 0,8 °C 0,6 °C 1,1 °C 1,1 °C 2,2 °C 96,00% 12 lf 88 cb 998,0 hPa 0,2 l/m˛ 3,2 km/h (1 Bft) SW 225 ° 0 min 30 min 0,000 mm 0,0 UV-I 0 W/m˛ 0,2 °C 0,8 °C 6,4 km/h (2 Bft)
24.01.21 22:30:00 0,6 °C 0,6 °C 0,8 °C 0,6 °C 1,1 °C 1,1 °C 2,2 °C 96,00% 15 lf 90 cb 998,0 hPa 0,0 l/m˛ 0,0 km/h (0 Bft) SW 225 ° 0 min 0 min 0,000 mm 0,0 UV-I 0 W/m˛ 0,0 °C 0,6 °C 4,8 km/h (1 Bft)
24.01.21 23:00:00 0,5 °C 0,4 °C 0,6 °C 0,6 °C 1,1 °C 1,1 °C 2,2 °C 97,00% 15 lf 90 cb 998,1 hPa 0,0 l/m˛ 0,0 km/h (0 Bft) N 0 ° 0 min 0 min 0,000 mm 0,0 UV-I 0 W/m˛ 0,1 °C 0,4 °C 0,0 km/h (0 Bft)
24.01.21 23:30:00 0,4 °C 0,4 °C 0,5 °C 0,6 °C 0,6 °C 1,1 °C 2,2 °C 97,00% 15 lf 90 cb 998,1 hPa 0,0 l/m˛ 0,0 km/h (0 Bft) N 0 ° 0 min 0 min 0,000 mm 0,0 UV-I 0 W/m˛ -0,0 °C 0,4 °C 0,0 km/h (0 Bft)

                                                                                                                                                                            _________________________________________________________________________________________________________________________________________________________________________

 Anomalie Daten

ausgewähltes Produkt zur Leistung: Zeitreihen und Trends
 
ausgewähltes Produkt zur Leistung:

 

 

ausgewähltes Produkt zur Leistung: Zeitreihen und Trends

Absolut Daten

ausgewähltes Produkt zur Leistung: Zeitreihen und Trends
ausgewähltes Produkt zur Leistung: Zeitreihen und Trends

 

ausgewähltes Produkt zur Leistung: Zeitreihen und Trends

 

2009 - 2021

Unwetterwarnungen

 

  Radarbild           

aktueller Radarfilm Deutschland

  Europa-Meteoalarm